Time;durP1;ratioP1;P1;durP2;ratioP2;P2;SDS_P1;SDS_P2;PMS_P1;PMS_P2;Temp;Humidity;BMP_temperature;BMP_pressure;BME280_temperature;BME280_humidity;BME280_pressure;Samples;Min_cycle;Max_cycle;Signal;HPM_P1;HPM_P2
2022/01/03 00:02:16;;;;;;;31.55;3.08;;;;;;;10.48;100.00;100849.94;5028757;28;20108;-77
2022/01/03 00:04:42;;;;;;;25.05;2.38;;;;;;;10.52;100.00;100855.19;5013966;28;20508;-77
2022/01/03 00:07:11;;;;;;;29.20;2.88;;;;;;;10.49;100.00;100839.88;5016581;28;20030;-77
2022/01/03 00:09:36;;;;;;;43.60;4.22;;;;;;;10.39;100.00;100856.13;5005072;28;20378;-78
2022/01/03 00:12:02;;;;;;;21.73;3.40;;;;;;;10.32;100.00;100857.63;4999741;28;20117;-78
2022/01/03 00:14:29;;;;;;;33.75;3.30;;;;;;;10.37;100.00;100849.91;5009735;28;20034;-78
2022/01/03 00:16:54;;;;;;;28.13;4.57;;;;;;;10.36;100.00;100863.72;5006360;28;20494;-77
2022/01/03 00:19:19;;;;;;;32.53;3.15;;;;;;;10.31;100.00;100855.84;5010148;28;20033;-78
2022/01/03 00:21:47;;;;;;;27.52;3.13;;;;;;;10.21;100.00;100863.03;5017194;28;20049;-78
2022/01/03 00:24:13;;;;;;;28.00;3.30;;;;;;;10.21;100.00;100866.63;5012129;28;20153;-78
2022/01/03 00:26:40;;;;;;;32.05;2.63;;;;;;;10.22;100.00;100871.13;5007368;28;20049;-77
2022/01/03 00:29:16;;;;;;;33.47;3.58;;;;;;;10.37;100.00;100881.91;5017577;28;20048;-78
2022/01/03 00:31:42;;;;;;;27.33;3.20;;;;;;;10.37;100.00;100868.22;5013618;28;20533;-78
2022/01/03 00:34:10;;;;;;;35.70;3.17;;;;;;;10.27;100.00;100874.38;5001453;28;20121;-78
2022/01/03 00:36:37;;;;;;;32.30;4.57;;;;;;;10.24;100.00;100880.06;4992817;28;20026;-78
2022/01/03 00:39:04;;;;;;;37.35;3.00;;;;;;;10.29;100.00;100876.97;4998969;28;20351;-78
2022/01/03 00:41:30;;;;;;;27.70;3.38;;;;;;;10.27;100.00;100878.97;5008066;28;20046;-77
2022/01/03 00:43:57;;;;;;;33.08;3.47;;;;;;;10.28;100.00;100881.59;4991011;28;20058;-78
2022/01/03 00:46:22;;;;;;;35.92;3.47;;;;;;;10.28;100.00;100873.38;5007296;28;20038;-78
2022/01/03 00:48:49;;;;;;;32.78;2.92;;;;;;;10.21;100.00;100877.56;5011903;28;20022;-77
2022/01/03 00:51:14;;;;;;;33.17;3.97;;;;;;;10.27;100.00;100887.19;5002704;28;20038;-78
2022/01/03 00:53:40;;;;;;;24.05;3.25;;;;;;;10.32;100.00;100895.94;5009573;28;20044;-77
2022/01/03 00:56:24;;;;;;;32.05;2.85;;;;;;;10.30;100.00;100892.44;5015115;28;20038;-78
2022/01/03 00:58:58;;;;;;;36.88;3.08;;;;;;;10.32;100.00;100897.78;4989365;28;20023;-78
2022/01/03 01:01:25;;;;;;;34.30;3.83;;;;;;;10.23;100.00;100894.75;5005540;28;20034;-78
2022/01/03 01:03:54;;;;;;;30.15;2.78;;;;;;;10.26;100.00;100893.63;5001544;28;20095;-78
2022/01/03 01:06:22;;;;;;;36.58;2.80;;;;;;;10.09;100.00;100884.88;5003147;28;20040;-78
2022/01/03 01:08:54;;;;;;;25.77;2.97;;;;;;;10.16;100.00;100888.00;4997165;28;20030;-77
2022/01/03 01:11:26;;;;;;;27.83;3.97;;;;;;;10.04;100.00;100897.16;5001547;28;20039;-78
2022/01/03 01:13:51;;;;;;;38.67;3.65;;;;;;;10.03;100.00;100893.53;5007629;28;20359;-77
2022/01/03 01:16:17;;;;;;;37.20;3.08;;;;;;;10.09;100.00;100897.69;5010978;28;20123;-78
2022/01/03 01:18:45;;;;;;;40.78;3.08;;;;;;;10.13;100.00;100901.91;5005927;28;20031;-78
2022/01/03 01:21:10;;;;;;;43.15;3.15;;;;;;;10.13;100.00;100901.91;5008137;28;20478;-77
2022/01/03 01:23:40;;;;;;;34.05;3.53;;;;;;;10.06;100.00;100898.78;5000204;28;20109;-78
2022/01/03 01:28:49;;;;;;;33.80;3.47;;;;;;;9.97;100.00;100898.59;5003770;28;20118;-77
2022/01/03 01:31:19;;;;;;;41.42;4.70;;;;;;;9.99;100.00;100905.72;5010404;28;20121;-78
2022/01/03 01:33:45;;;;;;;36.53;4.25;;;;;;;9.96;100.00;100911.41;5005502;28;20049;-78
2022/01/03 01:36:12;;;;;;;44.60;3.33;;;;;;;9.99;100.00;100911.19;5004103;28;20499;-79
2022/01/03 01:38:40;;;;;;;33.13;4.00;;;;;;;9.99;100.00;100910.31;5005469;28;20335;-79
2022/01/03 01:41:07;;;;;;;33.63;2.80;;;;;;;10.01;100.00;100911.94;5011840;28;20537;-79
2022/01/03 01:43:36;;;;;;;40.55;3.80;;;;;;;10.03;100.00;100909.09;4996214;28;20116;-78
2022/01/03 01:46:05;;;;;;;34.17;4.22;;;;;;;10.11;100.00;100920.31;5022386;28;20057;-79
2022/01/03 01:48:34;;;;;;;27.17;3.88;;;;;;;10.04;100.00;100919.91;4997907;28;20168;-79
2022/01/03 01:51:00;;;;;;;34.42;4.05;;;;;;;10.07;100.00;100921.56;5003077;28;20053;-79
2022/01/03 01:53:27;;;;;;;33.25;4.32;;;;;;;10.06;100.00;100911.59;4997455;28;20026;-79
2022/01/03 01:55:56;;;;;;;49.05;3.17;;;;;;;10.03;100.00;100918.16;4993704;28;20128;-77
2022/01/03 01:58:36;;;;;;;35.83;3.40;;;;;;;10.02;100.00;100924.63;4998147;28;20036;-77
2022/01/03 02:01:07;;;;;;;37.28;3.10;;;;;;;10.01;100.00;100919.28;5002063;28;20093;-79
2022/01/03 02:03:32;;;;;;;35.88;2.92;;;;;;;10.03;100.00;100929.09;4995618;28;20034;-77
2022/01/03 02:06:00;;;;;;;34.97;3.13;;;;;;;10.02;100.00;100932.84;4995566;28;20034;-78
2022/01/03 02:08:31;;;;;;;28.38;3.30;;;;;;;10.08;100.00;100923.28;4998625;28;20070;-78
2022/01/03 02:11:12;;;;;;;34.90;3.20;;;;;;;10.16;100.00;100923.56;5006182;28;20088;-77
2022/01/03 02:13:39;;;;;;;33.92;3.28;;;;;;;10.05;100.00;100924.41;5012932;28;20040;-78
2022/01/03 02:16:04;;;;;;;43.65;3.53;;;;;;;9.98;100.00;100925.84;5011527;28;20034;-78
2022/01/03 02:18:31;;;;;;;35.30;3.30;;;;;;;9.94;100.00;100927.06;5013885;28;20050;-78
2022/01/03 02:20:58;;;;;;;31.90;2.67;;;;;;;9.95;100.00;100923.34;4997174;28;20436;-78
2022/01/03 02:23:23;;;;;;;25.73;3.10;;;;;;;9.86;100.00;100921.31;4995419;28;20038;-78
2022/01/03 02:25:49;;;;;;;30.83;3.17;;;;;;;9.78;100.00;100923.75;5002727;28;20038;-78
2022/01/03 02:28:16;;;;;;;36.20;2.95;;;;;;;9.81;100.00;100920.78;5009143;28;20022;-78
2022/01/03 02:30:42;;;;;;;31.27;2.53;;;;;;;9.74;100.00;100920.38;5010834;28;20101;-77
2022/01/03 02:33:07;;;;;;;30.48;2.58;;;;;;;9.74;100.00;100931.31;5009584;28;20426;-78
2022/01/03 02:35:38;;;;;;;33.72;2.70;;;;;;;9.71;100.00;100929.66;5002746;28;20045;-78
2022/01/03 02:38:04;;;;;;;36.85;3.72;;;;;;;9.62;100.00;100922.13;5011920;28;20042;-78
2022/01/03 02:40:30;;;;;;;40.30;2.38;;;;;;;9.64;100.00;100924.75;5010231;28;20034;-78
2022/01/03 02:42:56;;;;;;;32.35;2.25;;;;;;;9.58;100.00;100920.63;4994711;28;20026;-78
2022/01/03 02:45:24;;;;;;;29.38;3.80;;;;;;;9.53;100.00;100915.50;4997374;28;20394;-78
2022/01/03 02:47:53;;;;;;;35.85;2.22;;;;;;;9.58;100.00;100923.38;4996284;28;20030;-78
2022/01/03 02:50:21;;;;;;;32.47;2.15;;;;;;;9.52;100.00;100924.69;5006117;28;20041;-78
2022/01/03 02:52:47;;;;;;;37.30;3.75;;;;;;;9.46;100.00;100927.88;4997034;28;20030;-78
2022/01/03 02:55:14;;;;;;;28.45;2.28;;;;;;;9.44;100.00;100918.91;5005704;28;20046;-78
2022/01/03 02:57:46;;;;;;;32.88;2.78;;;;;;;9.31;100.00;100921.69;4997322;28;20040;-78
2022/01/03 03:00:18;;;;;;;43.72;4.53;;;;;;;9.41;100.00;100923.72;5011214;28;20117;-78
2022/01/03 03:02:44;;;;;;;34.23;3.27;;;;;;;9.41;100.00;100924.59;4991476;28;20047;-78
2022/01/03 03:05:10;;;;;;;27.17;3.95;;;;;;;9.37;100.00;100937.59;5001379;28;20029;-78
2022/01/03 03:07:38;;;;;;;32.35;2.88;;;;;;;9.30;100.00;100939.06;5008589;28;20038;-77
2022/01/03 03:10:06;;;;;;;39.55;4.00;;;;;;;9.40;100.00;100935.66;5008815;28;20084;-78
2022/01/03 03:12:32;;;;;;;30.15;3.55;;;;;;;9.56;100.00;100933.56;5006734;28;20137;-78
2022/01/03 03:14:57;;;;;;;38.03;4.18;;;;;;;9.52;100.00;100934.75;5010949;28;20160;-78
2022/01/03 03:17:23;;;;;;;36.10;3.03;;;;;;;9.52;100.00;100945.69;5016603;28;20053;-78
2022/01/03 03:19:55;;;;;;;33.88;2.97;;;;;;;9.61;100.00;100941.38;5009720;28;20033;-77
2022/01/03 03:22:22;;;;;;;36.05;2.88;;;;;;;9.45;100.00;100937.06;4989008;28;20038;-78
2022/01/03 03:24:48;;;;;;;30.67;2.75;;;;;;;9.40;100.00;100942.00;4979798;28;20092;-78
2022/01/03 03:27:15;;;;;;;40.38;2.75;;;;;;;9.42;100.00;100944.63;4997165;28;20092;-78
2022/01/03 03:29:49;;;;;;;40.70;2.80;;;;;;;9.39;100.00;100942.97;5002044;28;20496;-77
2022/01/03 03:32:15;;;;;;;35.38;3.40;;;;;;;9.50;100.00;100943.06;5012880;28;20063;-77
2022/01/03 03:34:41;;;;;;;36.53;4.63;;;;;;;9.50;100.00;100954.00;5015971;28;20080;-78
2022/01/03 03:37:07;;;;;;;31.83;2.75;;;;;;;9.61;100.00;100950.47;4997170;28;20030;-77
2022/01/03 03:39:34;;;;;;;51.97;5.13;;;;;;;9.64;100.00;100947.53;5009280;28;20046;-77
2022/01/03 03:42:06;;;;;;;35.90;2.88;;;;;;;9.67;100.00;100957.34;5007960;28;20032;-78
2022/01/03 03:44:31;;;;;;;35.05;2.42;;;;;;;9.62;100.00;100949.47;5010035;28;20105;-78
2022/01/03 03:46:57;;;;;;;32.40;3.63;;;;;;;9.69;100.00;100948.06;4998880;28;20034;-78
2022/01/03 03:49:22;;;;;;;36.45;3.17;;;;;;;9.72;100.00;100945.09;5003354;28;20069;-78
2022/01/03 03:51:48;;;;;;;44.83;3.78;;;;;;;9.77;100.00;100935.66;5004212;28;20030;-78
2022/01/03 03:54:13;;;;;;;31.40;2.42;;;;;;;9.83;100.00;100947.00;5004900;28;20502;-79
2022/01/03 03:56:39;;;;;;;46.08;3.47;;;;;;;9.81;100.00;100939.94;4989862;28;20027;-78
2022/01/03 03:59:04;;;;;;;39.03;2.20;;;;;;;9.94;100.00;100932.53;4995037;28;20475;-78
2022/01/03 04:01:30;;;;;;;36.67;3.85;;;;;;;9.89;100.00;100932.88;5000266;28;20057;-78
2022/01/03 04:03:55;;;;;;;46.25;4.53;;;;;;;9.85;100.00;100925.03;4994692;28;20105;-78
2022/01/03 04:06:21;;;;;;;44.78;2.88;;;;;;;9.84;100.00;100931.47;4996373;28;20423;-78
2022/01/03 04:08:46;;;;;;;32.88;2.53;;;;;;;9.84;100.00;100926.00;5008114;28;20113;-78
2022/01/03 04:11:15;;;;;;;37.58;4.47;;;;;;;9.83;100.00;100927.00;5007475;28;20042;-78
2022/01/03 04:13:41;;;;;;;26.15;2.53;;;;;;;9.87;100.00;100926.66;4997662;28;20378;-78
2022/01/03 04:16:08;;;;;;;31.33;2.78;;;;;;;10.08;100.00;100921.44;5012096;28;20035;-78
2022/01/03 04:18:33;;;;;;;49.30;5.40;;;;;;;9.87;100.00;100923.94;5001687;28;20078;-78
2022/01/03 04:20:59;;;;;;;43.55;3.22;;;;;;;9.78;100.00;100904.59;4998065;28;20034;-78
2022/01/03 04:23:25;;;;;;;36.72;2.45;;;;;;;9.77;100.00;100908.31;5003218;28;20061;-78
2022/01/03 04:25:53;;;;;;;38.13;3.28;;;;;;;9.80;100.00;100916.28;5001812;28;20034;-78
2022/01/03 04:28:19;;;;;;;43.60;2.55;;;;;;;9.81;100.00;100916.19;5017770;28;20386;-78
2022/01/03 04:30:45;;;;;;;38.63;3.47;;;;;;;9.75;100.00;100911.16;5017331;28;20045;-78
2022/01/03 04:33:11;;;;;;;47.35;3.33;;;;;;;9.80;100.00;100908.09;5011056;28;20026;-79
2022/01/03 04:35:37;;;;;;;34.85;3.42;;;;;;;9.72;100.00;100904.09;5000030;28;20477;-78
2022/01/03 04:38:04;;;;;;;28.55;2.28;;;;;;;9.81;100.00;100902.50;5002607;28;20041;-78
2022/01/03 04:40:29;;;;;;;37.85;2.90;;;;;;;9.78;100.00;100905.47;5005636;28;20034;-78
2022/01/03 04:42:55;;;;;;;36.47;2.47;;;;;;;9.76;100.00;100907.47;5005024;28;20027;-78
2022/01/03 04:45:20;;;;;;;33.67;3.38;;;;;;;9.80;100.00;100917.16;4996382;28;20104;-77
2022/01/03 04:47:46;;;;;;;40.45;3.97;;;;;;;9.74;100.00;100920.38;5001028;28;20053;-78
2022/01/03 04:50:11;;;;;;;35.92;3.30;;;;;;;9.78;100.00;100901.88;5002857;28;20033;-77
2022/01/03 04:52:37;;;;;;;27.33;2.38;;;;;;;9.81;100.00;100907.97;5003849;28;20635;-78
2022/01/03 04:55:04;;;;;;;37.25;3.35;;;;;;;9.86;100.00;100907.63;5008155;28;20045;-77
2022/01/03 04:57:29;;;;;;;36.05;2.90;;;;;;;9.84;100.00;100907.75;4998939;28;20048;-78
2022/01/03 04:59:55;;;;;;;36.15;3.53;;;;;;;9.81;100.00;100901.66;5015614;28;20397;-78
2022/01/03 05:02:20;;;;;;;34.90;3.15;;;;;;;9.88;100.00;100902.91;5014068;28;20557;-78
2022/01/03 05:04:46;;;;;;;28.88;3.65;;;;;;;9.85;100.00;100909.47;5007710;28;20034;-77
2022/01/03 05:07:11;;;;;;;31.27;4.80;;;;;;;9.85;100.00;100905.88;5016413;28;20102;-78
2022/01/03 05:09:37;;;;;;;40.35;4.35;;;;;;;9.90;100.00;100906.41;4999201;28;20124;-77
2022/01/03 05:12:04;;;;;;;39.97;3.33;;;;;;;9.86;100.00;100907.63;5001791;28;20040;-78
2022/01/03 05:14:30;;;;;;;46.25;4.70;;;;;;;9.79;100.00;100911.81;5004456;28;20440;-78
2022/01/03 05:16:57;;;;;;;33.40;2.38;;;;;;;9.78;100.00;100905.47;5012807;28;20097;-78
2022/01/03 05:19:23;;;;;;;46.13;3.20;;;;;;;9.79;100.00;100898.13;5012819;28;20042;-79
2022/01/03 05:21:48;;;;;;;28.10;2.75;;;;;;;9.80;100.00;100898.00;4997302;28;20037;-79
2022/01/03 05:24:14;;;;;;;34.22;3.83;;;;;;;9.77;100.00;100892.78;5016748;28;20068;-79
2022/01/03 05:26:39;;;;;;;35.45;3.28;;;;;;;9.77;100.00;100890.03;5012403;28;20038;-79
2022/01/03 05:29:05;;;;;;;23.48;1.85;;;;;;;9.72;100.00;100882.22;4997588;28;20029;-79
2022/01/03 05:31:30;;;;;;;29.70;3.35;;;;;;;9.76;100.00;100885.59;5013030;28;20066;-79
2022/01/03 05:33:56;;;;;;;40.60;2.47;;;;;;;9.75;100.00;100879.22;5002035;28;20035;-79
2022/01/03 05:36:21;;;;;;;31.65;2.88;;;;;;;9.75;100.00;100887.41;5006986;28;20113;-79
2022/01/03 05:38:47;;;;;;;42.67;4.18;;;;;;;9.82;100.00;100882.41;5012808;28;20133;-79
2022/01/03 05:41:13;;;;;;;45.60;3.53;;;;;;;9.68;100.00;100875.22;5016359;28;20046;-80
2022/01/03 05:43:39;;;;;;;34.95;3.33;;;;;;;9.55;100.00;100874.38;5000660;28;20025;-79
2022/01/03 05:46:04;;;;;;;32.38;1.98;;;;;;;9.56;100.00;100881.63;5015409;28;20026;-79
2022/01/03 05:48:30;;;;;;;27.70;2.13;;;;;;;9.55;100.00;100872.53;5012132;28;20042;-79
2022/01/03 05:50:55;;;;;;;43.65;4.13;;;;;;;9.55;100.00;100885.31;5011833;28;20108;-78
2022/01/03 05:53:21;;;;;;;38.67;2.65;;;;;;;9.55;100.00;100872.53;5006383;28;20071;-79
2022/01/03 05:55:46;;;;;;;38.45;3.83;;;;;;;9.62;100.00;100881.13;5013481;28;20056;-80
2022/01/03 05:58:13;;;;;;;19.48;2.28;;;;;;;9.57;100.00;100870.56;5014167;28;20217;-79
2022/01/03 06:00:39;;;;;;;37.60;2.70;;;;;;;9.62;100.00;100872.94;5008921;28;20045;-77
2022/01/03 06:03:05;;;;;;;35.13;2.22;;;;;;;9.63;100.00;100869.22;4996733;28;20036;-79
2022/01/03 06:08:16;;;;;;;42.03;3.65;;;;;;;9.60;100.00;100861.25;5006556;28;20039;-79
2022/01/03 06:10:41;;;;;;;40.20;3.40;;;;;;;9.77;100.00;100872.78;4991045;28;20034;-80
2022/01/03 06:13:07;;;;;;;37.00;5.80;;;;;;;9.65;100.00;100869.09;5008681;28;20094;-79
2022/01/03 06:15:35;;;;;;;42.00;4.28;;;;;;;9.73;100.00;100877.59;5007856;28;20094;-78
2022/01/03 06:18:01;;;;;;;29.58;3.63;;;;;;;9.67;100.00;100861.66;5009737;28;20042;-77
2022/01/03 06:20:31;;;;;;;34.95;3.70;;;;;;;9.73;100.00;100864.78;5000571;28;20029;-79
2022/01/03 06:22:58;;;;;;;27.40;2.92;;;;;;;9.76;100.00;100863.72;5000844;28;20030;-79
2022/01/03 06:25:24;;;;;;;34.30;3.00;;;;;;;9.72;100.00;100857.59;5000739;28;20045;-79
2022/01/03 06:27:49;;;;;;;31.75;3.38;;;;;;;9.71;100.00;100864.06;5013887;28;20389;-78
2022/01/03 06:30:15;;;;;;;23.65;2.83;;;;;;;9.68;100.00;100858.81;5011094;28;20040;-78
2022/01/03 06:32:40;;;;;;;25.38;2.83;;;;;;;9.68;100.00;100856.06;5008630;28;20049;-79
2022/01/03 06:35:06;;;;;;;24.67;2.40;;;;;;;9.58;100.00;100863.22;5015495;28;20045;-78
2022/01/03 06:37:32;;;;;;;30.92;2.63;;;;;;;9.59;100.00;100862.22;5010056;28;20034;-78
2022/01/03 06:39:57;;;;;;;38.50;4.32;;;;;;;9.63;100.00;100861.03;5013776;28;20477;-78
2022/01/03 06:42:23;;;;;;;34.97;4.28;;;;;;;9.54;100.00;100853.50;5011690;28;20061;-78
2022/01/03 06:44:49;;;;;;;29.98;2.78;;;;;;;9.51;100.00;100851.00;5003730;28;20070;-79
2022/01/03 06:47:15;;;;;;;32.53;3.30;;;;;;;9.38;100.00;100841.00;5004711;28;20026;-78
2022/01/03 06:49:41;;;;;;;33.97;3.15;;;;;;;9.44;100.00;100833.31;4998950;28;20061;-79
2022/01/03 06:52:06;;;;;;;28.23;2.70;;;;;;;9.37;100.00;100831.03;5014849;28;20030;-78
2022/01/03 06:54:33;;;;;;;34.40;3.50;;;;;;;9.42;100.00;100835.31;5006415;28;20030;-78
2022/01/03 06:56:59;;;;;;;33.33;2.67;;;;;;;9.38;100.00;100842.88;5012790;28;20050;-78
2022/01/03 06:59:24;;;;;;;47.42;3.03;;;;;;;9.31;100.00;100842.44;5012017;28;20560;-78
2022/01/03 07:01:50;;;;;;;32.28;3.35;;;;;;;9.10;100.00;100841.28;5015511;28;20044;-78
2022/01/03 07:04:15;;;;;;;41.92;3.35;;;;;;;8.95;100.00;100829.63;5011895;28;20050;-78
2022/01/03 07:06:41;;;;;;;25.13;3.33;;;;;;;8.94;100.00;100828.75;4991214;28;20100;-77
2022/01/03 07:09:07;;;;;;;33.90;3.25;;;;;;;8.88;100.00;100829.19;5001962;28;20033;-78
2022/01/03 07:11:34;;;;;;;32.92;3.15;;;;;;;8.87;100.00;100824.72;5008303;28;20056;-78
2022/01/03 07:19:44;;;;;;;26.58;1.92;;;;;;;8.99;100.00;100844.81;5007614;28;20193;-78
2022/01/03 07:22:10;;;;;;;25.63;2.63;;;;;;;9.01;100.00;100840.09;5008737;28;20081;-78
2022/01/03 07:24:37;;;;;;;50.10;5.63;;;;;;;8.99;100.00;100839.34;5008373;28;20129;-79
2022/01/03 07:27:04;;;;;;;46.75;4.13;;;;;;;8.99;100.00;100836.63;5013167;28;20450;-78
2022/01/03 07:29:29;;;;;;;36.38;2.92;;;;;;;9.03;100.00;100840.84;4995690;28;20034;-78
2022/01/03 07:31:55;;;;;;;25.35;2.60;;;;;;;8.97;100.00;100842.19;4998560;28;20363;-78
2022/01/03 07:34:20;;;;;;;42.55;3.78;;;;;;;8.94;100.00;100853.31;5003668;28;20042;-80
2022/01/03 07:36:46;;;;;;;36.10;3.70;;;;;;;8.89;100.00;100846.47;5002890;28;20054;-80
2022/01/03 07:39:11;;;;;;;29.15;2.90;;;;;;;8.93;100.00;100854.31;5013439;28;20041;-79
2022/01/03 07:41:37;;;;;;;37.75;2.40;;;;;;;8.94;100.00;100839.69;5007973;28;20121;-78
2022/01/03 07:44:02;;;;;;;28.00;2.60;;;;;;;8.92;100.00;100854.41;5010092;28;20044;-79
2022/01/03 07:46:28;;;;;;;35.67;3.20;;;;;;;8.99;100.00;100851.13;5017967;28;20042;-81
2022/01/03 07:48:53;;;;;;;27.80;3.17;;;;;;;8.96;100.00;100854.09;5002776;28;20025;-82
2022/01/03 07:51:19;;;;;;;21.90;3.08;;;;;;;8.98;100.00;100845.78;5013444;28;20027;-80
2022/01/03 07:53:44;;;;;;;32.95;2.90;;;;;;;9.07;100.00;100852.41;5028062;28;20086;-79
2022/01/03 07:56:10;;;;;;;46.45;5.13;;;;;;;9.05;100.00;100858.03;5006039;28;20642;-79
2022/01/03 07:58:37;;;;;;;31.63;3.65;;;;;;;8.97;100.00;100853.09;5010439;28;20028;-79
2022/01/03 08:01:04;;;;;;;36.53;3.17;;;;;;;9.02;100.00;100864.56;5012130;28;20092;-79
2022/01/03 08:03:29;;;;;;;33.40;3.47;;;;;;;9.07;100.00;100857.88;5014545;28;20045;-79
2022/01/03 08:05:55;;;;;;;29.40;4.25;;;;;;;9.15;100.00;100870.03;5002328;28;20030;-80
2022/01/03 08:08:20;;;;;;;32.50;4.97;;;;;;;9.12;100.00;100872.97;5001600;28;20029;-80
2022/01/03 08:10:46;;;;;;;37.72;3.58;;;;;;;9.17;100.00;100881.69;5019062;28;20025;-80
2022/01/03 08:13:13;;;;;;;39.80;3.63;;;;;;;9.10;100.00;100882.25;5013885;28;20038;-78
2022/01/03 08:15:39;;;;;;;33.22;3.92;;;;;;;9.23;100.00;100872.19;5004569;28;20026;-78
2022/01/03 08:18:05;;;;;;;29.13;3.20;;;;;;;9.16;100.00;100857.22;5006276;28;20117;-80
2022/01/03 08:20:31;;;;;;;39.35;3.45;;;;;;;9.24;100.00;100857.53;5003599;28;20038;-79
2022/01/03 08:22:56;;;;;;;37.83;4.15;;;;;;;9.24;100.00;100849.34;5016427;28;20028;-79
2022/01/03 08:25:22;;;;;;;34.92;3.83;;;;;;;9.31;100.00;100850.66;5014026;28;20125;-78
2022/01/03 08:27:49;;;;;;;41.63;3.75;;;;;;;9.27;100.00;100850.97;5010399;28;20045;-78
2022/01/03 08:30:15;;;;;;;29.52;2.78;;;;;;;9.19;100.00;100857.88;5011899;28;20033;-80
2022/01/03 08:32:40;;;;;;;25.95;2.75;;;;;;;9.38;100.00;100864.72;5012189;28;20045;-79
2022/01/03 08:35:07;;;;;;;29.30;2.90;;;;;;;9.28;100.00;100853.59;5013469;28;20041;-78
2022/01/03 08:37:33;;;;;;;38.35;2.75;;;;;;;9.18;100.00;100841.59;5018057;28;20038;-80
2022/01/03 08:40:03;;;;;;;42.80;4.20;;;;;;;9.28;100.00;100845.41;5007192;28;20038;-80
2022/01/03 08:42:30;;;;;;;36.70;3.78;;;;;;;9.28;100.00;100853.59;5011925;28;20031;-79
2022/01/03 08:44:56;;;;;;;30.42;4.90;;;;;;;9.32;100.00;100846.91;4999995;28;20046;-78
2022/01/03 08:47:22;;;;;;;34.97;3.22;;;;;;;9.34;100.00;100834.00;5007761;28;20044;-80
2022/01/03 08:49:47;;;;;;;22.70;3.38;;;;;;;9.40;100.00;100829.09;4998786;28;20151;-78
2022/01/03 08:52:13;;;;;;;19.75;2.35;;;;;;;9.53;100.00;100836.25;5014746;28;20026;-79
2022/01/03 08:54:38;;;;;;;38.63;3.28;;;;;;;9.54;100.00;100834.38;5016349;28;20045;-79
2022/01/03 08:57:04;;;;;;;30.67;2.95;;;;;;;9.55;100.00;100828.78;5002036;28;20137;-79
2022/01/03 08:59:29;;;;;;;26.77;2.55;;;;;;;9.60;100.00;100839.38;5002956;28;20029;-78
2022/01/03 09:01:55;;;;;;;32.75;2.90;;;;;;;9.66;100.00;100846.25;5016811;28;20030;-78
2022/01/03 09:04:20;;;;;;;29.92;2.92;;;;;;;9.61;100.00;100845.72;5006676;28;20156;-78
2022/01/03 09:06:45;;;;;;;27.92;2.30;;;;;;;9.69;100.00;100849.63;5008651;28;20034;-79
2022/01/03 09:09:11;;;;;;;35.50;2.65;;;;;;;9.69;100.00;100854.19;4989934;28;20018;-79
2022/01/03 09:11:37;;;;;;;43.60;4.47;;;;;;;9.72;100.00;100853.97;5000256;28;20462;-79
2022/01/03 09:14:02;;;;;;;31.58;3.85;;;;;;;9.71;100.00;100858.59;5015450;28;20096;-79
2022/01/03 09:16:28;;;;;;;29.52;2.63;;;;;;;9.90;100.00;100852.59;5015904;28;20064;-79
2022/01/03 09:18:53;;;;;;;25.70;2.92;;;;;;;9.93;100.00;100852.34;5014733;28;20049;-79
2022/01/03 09:21:19;;;;;;;37.58;3.70;;;;;;;10.01;100.00;100846.28;4997998;28;20038;-81
2022/01/03 09:23:50;;;;;;;35.42;3.08;;;;;;;10.07;100.00;100843.09;4999090;28;20446;-80
2022/01/03 09:28:59;;;;;;;46.25;3.97;;;;;;;10.16;100.00;100841.50;5004267;28;20080;-80
2022/01/03 09:31:32;;;;;;;27.98;2.72;;;;;;;10.22;100.00;100838.28;5012239;28;20038;-79
2022/01/03 09:34:01;;;;;;;33.65;3.47;;;;;;;10.12;100.00;100846.34;5001702;28;20034;-79
2022/01/03 09:36:28;;;;;;;39.70;3.53;;;;;;;10.15;100.00;100845.22;5000316;28;20042;-80
2022/01/03 09:38:54;;;;;;;25.40;2.63;;;;;;;10.10;100.00;100842.84;5019003;28;20034;-79
2022/01/03 09:41:23;;;;;;;20.30;2.38;;;;;;;10.18;100.00;100844.09;5009914;28;20102;-79
2022/01/03 09:44:00;;;;;;;31.30;2.97;;;;;;;10.12;100.00;100842.72;5018868;28;20033;-79
2022/01/03 09:46:31;;;;;;;28.48;2.70;;;;;;;10.12;100.00;100823.59;5022489;28;20045;-80
2022/01/03 09:48:57;;;;;;;36.55;4.40;;;;;;;10.20;100.00;100806.53;5000947;28;20045;-79
2022/01/03 09:51:29;;;;;;;23.35;2.55;;;;;;;10.18;100.00;100814.88;5004091;28;20432;-79
2022/01/03 09:53:59;;;;;;;36.85;2.90;;;;;;;10.19;100.00;100818.50;5007777;28;20041;-80
2022/01/03 09:56:26;;;;;;;20.30;2.92;;;;;;;10.20;100.00;100803.81;5013192;28;20101;-79
2022/01/03 09:58:52;;;;;;;28.70;3.50;;;;;;;10.18;100.00;100817.59;5004841;28;20183;-79
2022/01/03 10:01:17;;;;;;;21.83;3.00;;;;;;;10.27;100.00;100814.16;5012822;28;20033;-79
2022/01/03 10:03:47;;;;;;;33.83;4.07;;;;;;;10.28;100.00;100806.81;5000595;28;20068;-78
2022/01/03 10:06:15;;;;;;;31.80;3.13;;;;;;;10.32;100.00;100815.69;5000641;28;21677;-79
2022/01/03 10:08:41;;;;;;;33.70;2.70;;;;;;;10.32;100.00;100807.47;4997461;28;20627;-78
2022/01/03 10:11:07;;;;;;;32.38;3.10;;;;;;;10.36;100.00;100809.00;4992809;28;20404;-79
2022/01/03 10:13:33;;;;;;;45.22;3.63;;;;;;;10.35;100.00;100799.06;5003664;28;20054;-80
2022/01/03 10:15:58;;;;;;;31.17;2.88;;;;;;;10.35;100.00;100804.53;5001021;28;20057;-81
2022/01/03 10:18:24;;;;;;;27.30;2.75;;;;;;;10.37;100.00;100784.22;5019307;28;20041;-80
2022/01/03 10:20:49;;;;;;;22.58;2.50;;;;;;;10.52;100.00;100801.28;5020124;28;20058;-81
2022/01/03 10:23:17;;;;;;;37.35;3.72;;;;;;;10.44;100.00;100806.50;4994362;28;20029;-79
2022/01/03 10:25:46;;;;;;;36.50;3.22;;;;;;;10.44;100.00;100798.31;5001255;28;20129;-80
2022/01/03 10:28:21;;;;;;;33.85;3.05;;;;;;;10.50;100.00;100797.81;5015084;28;20037;-80
2022/01/03 10:30:46;;;;;;;33.13;3.13;;;;;;;10.43;100.00;100800.19;4997066;28;20030;-80
2022/01/03 10:33:18;;;;;;;36.17;2.85;;;;;;;10.52;100.00;100801.28;5010587;28;20026;-80
2022/01/03 10:35:57;;;;;;;29.58;3.65;;;;;;;10.63;100.00;100801.31;4986365;28;20026;-81
2022/01/03 10:38:40;;;;;;;32.00;3.78;;;;;;;10.57;100.00;100804.53;4999031;28;20109;-80
2022/01/03 10:41:14;;;;;;;32.78;3.63;;;;;;;10.62;100.00;100790.47;5009607;28;20037;-80
2022/01/03 10:43:44;;;;;;;26.58;2.72;;;;;;;10.57;100.00;100796.31;5013608;28;20033;-81
2022/01/03 10:46:21;;;;;;;39.88;3.08;;;;;;;10.56;100.00;100804.66;5014939;28;20066;-81
2022/01/03 10:48:47;;;;;;;26.05;2.30;;;;;;;10.58;100.00;100806.28;5017299;28;20497;-82
2022/01/03 10:51:22;;;;;;;28.23;3.92;;;;;;;10.63;100.00;100801.31;5017740;28;20029;-80
2022/01/03 10:53:50;;;;;;;34.85;3.75;;;;;;;10.61;100.00;100803.31;5009467;28;20085;-81
2022/01/03 10:56:36;;;;;;;29.25;2.83;;;;;;;10.59;100.00;100794.34;4998465;28;20084;-80
2022/01/03 10:59:25;;;;;;;34.17;4.43;;;;;;;10.65;100.00;100791.09;4996480;28;20037;-80
2022/01/03 11:01:56;;;;;;;31.83;3.30;;;;;;;10.68;100.00;100790.00;4997068;28;20085;-79
2022/01/03 11:04:57;;;;;;;36.97;3.70;;;;;;;10.66;100.00;100783.78;4999554;28;20422;-80
2022/01/03 11:13:21;;;;;;;20.92;2.10;;;;;;;10.85;100.00;100770.34;5017243;28;20042;-80
2022/01/03 11:16:00;;;;;;;27.90;3.33;;;;;;;10.87;100.00;100758.34;5001915;28;20038;-80
2022/01/03 11:18:33;;;;;;;33.80;4.32;;;;;;;10.78;100.00;100758.13;5020137;28;20500;-80
2022/01/03 11:21:08;;;;;;;28.40;3.15;;;;;;;10.78;100.00;100749.91;5015528;28;20125;-80
2022/01/03 11:23:35;;;;;;;29.38;2.65;;;;;;;10.76;100.00;100748.31;5013698;28;20057;-80
2022/01/03 11:26:18;;;;;;;35.80;3.47;;;;;;;10.90;100.00;100752.63;4994315;28;20096;-79
2022/01/03 11:28:44;;;;;;;31.52;3.08;;;;;;;11.00;100.00;100757.25;5017099;28;20029;-81
2022/01/03 11:31:13;;;;;;;31.45;3.60;;;;;;;11.03;100.00;100734.19;5018758;28;20037;-80
2022/01/03 11:33:40;;;;;;;25.63;3.45;;;;;;;11.01;100.00;100744.41;5015461;28;20033;-80
2022/01/03 11:36:06;;;;;;;24.50;3.00;;;;;;;10.97;100.00;100734.69;5018300;28;20029;-81